Sunday, October 21, 2018, 7:54 PM EDT
Back to Local

KPOU, Poughkeepsie Dutchess Cty

Location: Wappingers Falls, NY, United States Lat: 41.633
Local Time: 7:54 PM EDT (23:54 GMT) Lon: -73.883
Time Zone: US/Eastern Elev: 167 ft

Show me the last for .
Show Decoded

2018-10-21 18:53 METAR KPOU 212253Z 31009KT 10SM FEW055 04/M06 A3007 RMK AO2 SLP182 T00391056 =
2018-10-21 17:53 METAR KPOU 212153Z 33006KT 10SM CLR 05/M06 A3003 RMK AO2 SLP168 T00501061 =
2018-10-21 16:53 METAR KPOU 212053Z 32010G23KT 10SM CLR 07/M06 A3000 RMK AO2 SLP157 T00671056
                 53017 =
2018-10-21 15:53 METAR KPOU 211953Z 32014G22KT 10SM SCT055 07/M06 A2997 RMK AO2 SLP146 T00721056
                 =
2018-10-21 14:53 METAR KPOU 211853Z COR 33014G25KT 10SM SCT055 07/M06 A2996 RMK AO2 PK WND
                 33030/1818 SLP143 T00721056 =
2018-10-21 13:53 METAR KPOU 211753Z 31014G21KT 10SM SCT055 07/M05 A2995 RMK AO2 SLP140 T00671050
                 10083 20056 51004 =
2018-10-21 12:53 METAR KPOU 211653Z 33015G25KT 10SM SCT055 06/M06 A2995 RMK AO2 SLP138 T00611056
                 =
2018-10-21 11:53 METAR KPOU 211553Z 32014G19KT 10SM OVC050 07/M03 A2995 RMK AO2 SLP140 T00721033
                 =
2018-10-21 10:53 METAR KPOU 211453Z 32014G20KT 10SM OVC045 07/M03 A2994 RMK AO2 SLP136 T00671033
                 51037 =
2018-10-21 09:53 METAR KPOU 211353Z 32013G21KT 10SM BKN042 06/M03 A2992 RMK AO2 SLP130 T00561033
                 =
2018-10-21 08:53 METAR KPOU 211253Z 31012G19KT 10SM BKN044 06/M02 A2988 RMK AO2 SLP116 T00611022
                 =
2018-10-21 07:53 METAR KPOU 211153Z 33010G21KT 10SM CLR 06/M03 A2983 RMK AO2 SLP099 60002 70014
                 T00561028 10078 20056 53054 =
2018-10-21 06:53 METAR KPOU 211053Z 31007KT 10SM FEW055 SCT090 07/01 A2977 RMK AO2 SLP077
                 T00670006 =
2018-10-21 05:53 METAR KPOU 210953Z AUTO 30005KT 10SM OVC080 07/04 A2971 RMK AO2 SLP059 T00720044
                 =
2018-10-21 04:53 METAR KPOU 210853Z 32003KT 10SM OVC070 07/05 A2967 RMK AO2 SLP043 60002
                 T00720050 53010 =
2018-10-21 03:53 METAR KPOU 210753Z 26004KT 10SM OVC060 07/06 A2964 RMK AO2 SLP033 T00720061 =
2018-10-21 02:53 METAR KPOU 210653Z 25003KT 10SM OVC050 07/06 A2961 RMK AO2 RAE30 SLP025 P0002
                 T00720061 =
2018-10-21 01:53 METAR KPOU 210553Z 35003KT 8SM -RA FEW016 SCT030 OVC039 08/06 A2964 RMK AO2
                 SLP033 P0009 60012 T00780056 10106 20078 53006 =
2018-10-21 01:42 METAR KPOU 210542Z 36005KT 6SM -RA BR FEW014 BKN030 OVC037 08/06 A2964 RMK AO2
                 P0008 T00780056 =
2018-10-21 01:04 METAR KPOU 210504Z 34006KT 5SM -RA BR FEW009 BKN025 OVC038 08/07 A2964 RMK AO2
                 P0002 T00830067 =
2018-10-21 00:53 METAR KPOU 210453Z 32003KT 8SM -RA OVC038 09/07 A2963 RMK AO2 SLP031 P0003
                 T00890067 401670089 =
2018-10-20 23:53 METAR KPOU 210353Z 00000KT 10SM -RA SCT050 OVC070 09/07 A2963 RMK AO2 RAB48
                 SLP029 P0000 T00940072 =
2018-10-20 22:53 METAR KPOU 210253Z 03003KT 10SM OVC060 10/07 A2962 RMK AO2 SLP027 T01000067
                 53005 =
2018-10-20 21:53 METAR KPOU 210153Z 00000KT 10SM BKN055 OVC075 10/07 A2962 RMK AO2 SLP025
                 T01000072 =
2018-10-20 20:53 METAR KPOU 210053Z 00000KT 10SM SCT055 BKN070 OVC095 10/07 A2961 RMK AO2 SLP022
                 T01000067 =

Support USWX by starting your Amazon purchase here.